createdAt,value
2022-10-05T04:41:56.281Z,101047.06
2022-10-05T04:44:44.460Z,101056.75
2022-10-05T04:47:45.517Z,101060.69
2022-10-05T04:50:47.990Z,101060.69
2022-10-05T04:53:31.759Z,101094.38
2022-10-05T04:56:18.198Z,101113.84
2022-10-05T04:59:00.379Z,101119.13
2022-10-05T05:01:39.511Z,101131.94
2022-10-05T05:04:27.219Z,101140.72
2022-10-05T05:07:28.539Z,101142.19
2022-10-05T05:10:14.028Z,101149.13
2022-10-05T05:13:28.093Z,101148.63
2022-10-05T05:16:07.343Z,101158.81
2022-10-05T05:18:54.425Z,101156.91
2022-10-05T05:21:50.198Z,101157.53
2022-10-05T05:24:25.899Z,101157.72
2022-10-05T05:27:12.414Z,101166.19
2022-10-05T05:29:48.437Z,101169.13
2022-10-05T05:32:33.628Z,101174.53
2022-10-05T05:35:42.691Z,101177.72
2022-10-05T05:38:29.220Z,101178.34
2022-10-05T05:41:02.804Z,101182.19
2022-10-05T05:43:43.461Z,101185.69
2022-10-05T05:46:15.998Z,101182.50
2022-10-05T05:48:47.784Z,101179.78
2022-10-05T05:51:23.225Z,101175.19
2022-10-05T05:54:00.504Z,101181.78
2022-10-05T05:56:41.804Z,101192.63
2022-10-05T05:59:20.032Z,101185.59
2022-10-05T06:01:54.020Z,101176.88
2022-10-05T06:04:33.243Z,101180.69
2022-10-05T06:07:02.771Z,101187.09
2022-10-05T06:09:40.458Z,101186.13
2022-10-05T06:12:15.448Z,101182.66
2022-10-05T06:14:48.130Z,101184.44
2022-10-05T06:17:37.006Z,101181.41
2022-10-05T06:20:11.606Z,101188.91
2022-10-05T06:22:45.149Z,101190.34
2022-10-05T06:25:12.019Z,101187.56
2022-10-05T06:28:18.195Z,101194.38
2022-10-05T06:31:09.442Z,101210.22
2022-10-05T06:33:46.591Z,101208.78
2022-10-05T06:36:18.066Z,101216.56
2022-10-05T06:38:53.993Z,101205.13
2022-10-05T06:41:50.864Z,101216.44
2022-10-05T06:44:27.813Z,101199.06
2022-10-05T06:47:16.336Z,101204.53
2022-10-05T06:50:10.303Z,101212.66
2022-10-05T06:52:46.078Z,101211.84
2022-10-05T06:55:50.880Z,101211.25
2022-10-05T06:58:28.576Z,101205.50
2022-10-05T07:01:04.558Z,101210.63
2022-10-05T07:03:40.562Z,101216.88
2022-10-05T07:06:19.282Z,101207.31
2022-10-05T07:08:53.581Z,101210.03
2022-10-05T07:11:36.324Z,101214.34
2022-10-05T07:14:40.963Z,101230.81
2022-10-05T07:17:44.825Z,101235.44
2022-10-05T07:20:29.114Z,101220.63
2022-10-05T07:23:20.457Z,101214.88
2022-10-05T07:26:15.275Z,101226.38
2022-10-05T07:29:12.775Z,101234.84
2022-10-05T07:31:55.478Z,101232.28
2022-10-05T07:34:50.305Z,101227.53
2022-10-05T07:37:45.826Z,101238.53
2022-10-05T07:40:19.825Z,101228.13
2022-10-05T07:43:14.636Z,101220.97
2022-10-05T07:46:13.235Z,101217.13
2022-10-05T07:49:07.471Z,101220.66
2022-10-05T07:51:41.345Z,101223.69
2022-10-05T07:54:24.295Z,101228.94
2022-10-05T07:57:13.753Z,101230.69
2022-10-05T08:00:01.116Z,101241.75
2022-10-05T08:02:49.729Z,101244.28
2022-10-05T08:05:34.724Z,101245.06
2022-10-05T08:08:14.389Z,101252.25
2022-10-05T08:10:50.733Z,101245.56
2022-10-05T08:13:32.312Z,101257.00
2022-10-05T08:16:03.301Z,101258.94
2022-10-05T08:19:07.311Z,101263.22
2022-10-05T08:21:39.098Z,101261.47
2022-10-05T08:24:17.825Z,101268.97
2022-10-05T08:26:44.783Z,101270.41
2022-10-05T08:29:30.608Z,101270.41
2022-10-05T08:32:01.854Z,101267.84
2022-10-05T08:34:34.496Z,101269.09
2022-10-05T08:37:24.697Z,101266.72
2022-10-05T08:40:16.297Z,101272.31
2022-10-05T08:43:07.194Z,101269.91
2022-10-05T08:46:11.624Z,101259.53
2022-10-05T08:49:04.499Z,101267.31
2022-10-05T08:51:37.122Z,101274.03
2022-10-05T08:54:31.732Z,101275.63
2022-10-05T08:57:40.271Z,101275.31
2022-10-05T09:00:12.319Z,101266.78
2022-10-05T09:03:09.858Z,101270.47
2022-10-05T09:06:11.878Z,101262.88
2022-10-05T09:08:49.767Z,101272.28
2022-10-05T09:12:14.514Z,101273.78
2022-10-05T09:15:13.623Z,101281.88
2022-10-05T09:18:10.456Z,101282.78
2022-10-05T09:20:57.891Z,101282.91
2022-10-05T09:23:44.501Z,101283.72
2022-10-05T09:26:26.338Z,101290.63
2022-10-05T09:29:14.714Z,101297.53
2022-10-05T09:32:11.713Z,101295.53
2022-10-05T09:35:09.439Z,101293.22
2022-10-05T09:37:36.437Z,101303.72
2022-10-05T09:40:41.524Z,101305.13
2022-10-05T09:43:20.368Z,101305.56
2022-10-05T09:46:11.642Z,101306.94
2022-10-05T09:48:51.526Z,101306.66
2022-10-05T09:51:28.396Z,101318.22
2022-10-05T09:54:32.840Z,101316.38
2022-10-05T09:57:31.945Z,101314.19
2022-10-05T10:00:38.485Z,101302.75
2022-10-05T10:03:43.157Z,101308.22
2022-10-05T10:06:37.465Z,101308.69
2022-10-05T10:09:25.583Z,101305.06
2022-10-05T10:12:20.470Z,101309.31
2022-10-05T10:15:25.896Z,101301.34
2022-10-05T10:17:58.947Z,101296.31
2022-10-05T10:20:45.775Z,101302.44
2022-10-05T10:23:32.462Z,101287.81
2022-10-05T10:26:37.008Z,101298.63
2022-10-05T10:29:51.224Z,101293.41
2022-10-05T10:32:24.040Z,101295.84
2022-10-05T10:34:59.903Z,101292.19
2022-10-05T10:38:04.539Z,101282.09
2022-10-05T10:41:08.837Z,101275.19
2022-10-05T10:43:54.477Z,101279.31
2022-10-05T10:46:59.323Z,101276.63
2022-10-05T10:49:32.046Z,101276.50
2022-10-05T10:52:29.179Z,101272.97
2022-10-05T10:55:29.159Z,101284.41
2022-10-05T10:58:16.229Z,101283.03
2022-10-05T11:00:46.263Z,101290.31
2022-10-05T11:03:44.057Z,101295.88
2022-10-05T11:06:13.896Z,101297.22
2022-10-05T11:09:02.909Z,101299.16
2022-10-05T11:11:32.622Z,101291.25
2022-10-05T11:14:34.854Z,101285.00
2022-10-05T11:17:18.167Z,101291.44
2022-10-05T11:20:03.494Z,101292.06
2022-10-05T11:23:12.779Z,101281.94
2022-10-05T11:25:48.589Z,101289.19
2022-10-05T11:28:35.593Z,101288.28
2022-10-05T11:31:21.513Z,101283.28
2022-10-05T11:34:07.240Z,101286.25
2022-10-05T11:36:46.547Z,101273.50
2022-10-05T11:39:16.516Z,101276.81
2022-10-05T11:41:51.691Z,101273.28
2022-10-05T11:45:11.658Z,101274.75
2022-10-05T11:47:58.603Z,101267.00
2022-10-05T11:50:34.185Z,101261.34
2022-10-05T11:53:19.499Z,101266.81
2022-10-05T11:55:58.180Z,101277.28
2022-10-05T11:58:58.521Z,101265.13
2022-10-05T12:01:57.231Z,101261.91
2022-10-05T12:04:50.987Z,101251.22
2022-10-05T12:07:39.052Z,101250.47
2022-10-05T12:10:14.759Z,101254.38
2022-10-05T12:13:02.121Z,101251.16
2022-10-05T12:15:40.824Z,101246.94
2022-10-05T12:18:31.224Z,101245.13
2022-10-05T12:21:07.742Z,101241.50
2022-10-05T12:23:44.208Z,101245.81
2022-10-05T12:26:16.763Z,101238.31
2022-10-05T12:28:43.814Z,101227.84
2022-10-05T12:31:29.132Z,101216.16
2022-10-05T12:34:23.846Z,101246.41
2022-10-05T12:37:04.038Z,101217.78
2022-10-05T12:39:54.828Z,101232.53
2022-10-05T12:42:46.138Z,101207.53
2022-10-05T12:45:13.457Z,101222.25
2022-10-05T12:48:02.279Z,101227.72
2022-10-05T12:50:39.600Z,101224.88
2022-10-05T12:53:39.507Z,101215.16
2022-10-05T12:56:32.307Z,101220.09
2022-10-05T12:59:24.891Z,101209.31
2022-10-05T13:02:02.578Z,101219.19
2022-10-05T13:04:38.652Z,101211.44
2022-10-05T13:07:39.625Z,101207.94
2022-10-05T13:10:33.591Z,101204.19
2022-10-05T13:13:21.999Z,101210.94
2022-10-05T13:16:31.347Z,101208.09
2022-10-05T13:19:19.561Z,101206.19
2022-10-05T13:21:47.398Z,101206.19
2022-10-05T13:24:38.198Z,101210.91
2022-10-05T13:27:18.563Z,101195.50
2022-10-05T13:29:56.511Z,101190.72
2022-10-05T13:32:41.305Z,101181.94
2022-10-05T13:36:03.841Z,101187.13
2022-10-05T13:39:01.800Z,101178.09
2022-10-05T13:41:28.955Z,101188.09
2022-10-05T13:44:10.430Z,101189.34
2022-10-05T13:47:01.342Z,101176.16
2022-10-05T13:52:49.314Z,101163.19
2022-10-05T13:55:43.706Z,101170.91
2022-10-05T13:58:32.945Z,101175.63
2022-10-05T14:01:02.821Z,101166.00
2022-10-05T14:03:36.058Z,101139.53
2022-10-05T14:06:13.170Z,101166.03
2022-10-05T14:08:53.015Z,101157.09
2022-10-05T14:11:24.365Z,101119.63
2022-10-05T14:13:53.345Z,101154.13
2022-10-05T14:16:23.976Z,101152.88
2022-10-05T14:19:11.216Z,101157.47
2022-10-05T14:22:22.392Z,101149.41
2022-10-05T14:24:57.046Z,101149.25
2022-10-05T14:27:33.507Z,101135.78
2022-10-05T14:30:18.808Z,101142.63
2022-10-05T14:32:56.195Z,101134.34
2022-10-05T14:35:28.217Z,73387.22
2022-10-05T14:38:02.257Z,73387.22
2022-10-05T14:40:35.669Z,73387.22
2022-10-05T14:43:23.176Z,73387.22
2022-10-05T14:45:58.092Z,73387.22
2022-10-05T14:48:28.138Z,73387.22
2022-10-05T14:51:03.827Z,73387.22
2022-10-05T14:53:46.532Z,73387.22
2022-10-05T14:56:25.343Z,73387.22
2022-10-05T14:59:05.285Z,73387.22
2022-10-05T15:01:37.053Z,73387.22
2022-10-05T15:04:32.131Z,73387.22
2022-10-05T15:07:44.671Z,73387.22
2022-10-05T15:10:26.935Z,73387.22
2022-10-05T15:12:58.346Z,101134.34
2022-10-05T15:15:54.548Z,101151.97
2022-10-05T15:18:49.337Z,101150.06
2022-10-05T15:21:31.932Z,101146.50
2022-10-05T15:24:20.696Z,101148.47
2022-10-05T15:26:51.321Z,101140.56
2022-10-05T15:29:52.187Z,101138.53
2022-10-05T15:32:55.609Z,101126.44
2022-10-05T15:35:29.194Z,101136.59
2022-10-05T15:38:21.280Z,101125.19
2022-10-05T15:40:54.850Z,101124.41
2022-10-05T15:43:23.647Z,101125.97
2022-10-05T15:45:57.266Z,101119.66
2022-10-05T15:48:46.310Z,101124.50
2022-10-05T15:51:23.072Z,101115.84
2022-10-05T15:54:38.024Z,101103.88
2022-10-05T16:00:04.749Z,101101.66
2022-10-05T16:02:43.528Z,101095.84
2022-10-05T16:05:59.448Z,101097.16
2022-10-05T16:08:50.762Z,101100.06
2022-10-05T16:11:35.874Z,101087.72
2022-10-05T16:14:15.311Z,101094.69
2022-10-05T16:16:57.755Z,101086.91
2022-10-05T16:19:30.018Z,101078.41
2022-10-05T16:22:25.770Z,101078.19
2022-10-05T16:25:06.691Z,101082.91
2022-10-05T16:27:55.177Z,101071.38
2022-10-05T16:30:24.297Z,101069.25
2022-10-05T16:33:27.631Z,101064.38
2022-10-05T16:36:26.165Z,101072.47
2022-10-05T16:39:01.035Z,101083.03
2022-10-05T16:41:37.255Z,101083.72
2022-10-05T16:44:16.319Z,101053.41
2022-10-05T16:47:27.604Z,101073.97
2022-10-05T16:50:16.651Z,101079.56
2022-10-05T16:52:48.227Z,101063.66
2022-10-05T16:55:20.164Z,101062.16
2022-10-05T16:57:51.471Z,101066.28
2022-10-05T17:00:22.105Z,101070.34
2022-10-05T17:03:13.634Z,101064.47
2022-10-05T17:06:09.050Z,101074.63
2022-10-05T17:09:13.909Z,101078.41
2022-10-05T17:12:09.312Z,101077.81
2022-10-05T17:15:12.554Z,101073.94
2022-10-05T17:18:16.937Z,101071.41
2022-10-05T17:21:04.868Z,101078.47
2022-10-05T17:23:53.643Z,101073.09
2022-10-05T17:26:23.820Z,101080.13
2022-10-05T17:29:26.913Z,101080.56
2022-10-05T17:32:06.075Z,101089.41
2022-10-05T17:34:36.746Z,101090.38
2022-10-05T17:37:32.493Z,101089.03
2022-10-05T17:39:59.685Z,101084.41
2022-10-05T17:42:26.722Z,101093.69
2022-10-05T17:45:20.814Z,101091.22
2022-10-05T17:48:06.103Z,101095.41
2022-10-05T17:51:05.143Z,101101.34
2022-10-05T17:53:54.021Z,101101.44
2022-10-05T17:56:22.847Z,101096.94
2022-10-05T17:58:54.691Z,101101.84
2022-10-05T18:01:33.912Z,101099.13
2022-10-05T18:04:13.331Z,101098.38
2022-10-05T18:06:52.687Z,101099.66
2022-10-05T18:09:22.567Z,101098.88
2022-10-05T18:12:08.473Z,101097.44
2022-10-05T18:15:07.785Z,101088.78
2022-10-05T18:17:47.694Z,101097.84
2022-10-05T18:20:31.567Z,101095.13
2022-10-05T18:23:08.004Z,101090.69
2022-10-05T18:25:44.978Z,101084.63
2022-10-05T18:28:34.579Z,101096.16
2022-10-05T18:31:31.469Z,101081.97
2022-10-05T18:34:20.781Z,101089.13
2022-10-05T18:37:07.368Z,101091.00
2022-10-05T18:39:53.888Z,101080.88
2022-10-05T18:42:50.072Z,101076.34
2022-10-05T18:45:58.391Z,101049.06
2022-10-05T18:48:54.435Z,101079.00
2022-10-05T18:51:34.337Z,101068.75
2022-10-05T18:54:29.842Z,101063.47
2022-10-05T18:56:57.274Z,101075.38
2022-10-05T18:59:49.878Z,101077.91
2022-10-05T19:02:36.521Z,101071.38
2022-10-05T19:05:48.943Z,101073.75
2022-10-05T19:08:49.744Z,101065.91
2022-10-05T19:11:33.936Z,101063.59
2022-10-05T19:14:16.481Z,101057.28
2022-10-05T19:17:08.777Z,101052.69
2022-10-05T19:20:27.354Z,101050.16
2022-10-05T19:23:12.548Z,101047.09
2022-10-05T19:25:47.873Z,101033.41
2022-10-05T19:28:17.169Z,101031.59
2022-10-05T19:30:57.221Z,101029.06
2022-10-05T19:33:33.570Z,101025.44
2022-10-05T19:36:19.088Z,101026.91
2022-10-05T19:39:05.065Z,101025.13
2022-10-05T19:42:01.521Z,101023.72
2022-10-05T19:44:38.788Z,101021.47
2022-10-05T19:47:17.823Z,101020.81
2022-10-05T19:49:56.808Z,101018.75
2022-10-05T19:52:49.673Z,101014.75
2022-10-05T19:55:31.144Z,101019.84
2022-10-05T19:58:02.752Z,101016.13
2022-10-05T20:00:35.345Z,101015.78
2022-10-05T20:03:17.786Z,101014.63
2022-10-05T20:05:45.353Z,101006.94
2022-10-05T20:08:17.519Z,101012.13
2022-10-05T20:10:46.858Z,101011.47
2022-10-05T20:13:22.418Z,101019.41
2022-10-05T20:16:27.271Z,101022.72
2022-10-05T20:19:13.380Z,101032.84
2022-10-05T20:21:46.345Z,101034.09
2022-10-05T20:24:25.715Z,101032.03
2022-10-05T20:27:05.472Z,101043.84
2022-10-05T20:29:34.005Z,101042.13
2022-10-05T20:32:04.371Z,101042.97
2022-10-05T20:34:32.964Z,101044.88
2022-10-05T20:37:00.077Z,101038.38
2022-10-05T20:39:27.097Z,101037.59
2022-10-05T20:41:54.157Z,101038.50
2022-10-05T20:44:21.239Z,101028.31
2022-10-05T20:46:48.487Z,101036.72
2022-10-05T20:49:15.862Z,101038.81
2022-10-05T20:51:43.375Z,101043.75
2022-10-05T20:54:10.420Z,101035.31
2022-10-05T20:56:37.493Z,101040.25
2022-10-05T20:59:04.609Z,101041.72
2022-10-05T21:01:32.037Z,101030.66
2022-10-05T21:03:59.315Z,101030.88
2022-10-05T21:06:29.957Z,101030.16
2022-10-05T21:08:57.017Z,101027.13
2022-10-05T21:11:24.177Z,101035.19
2022-10-05T21:13:51.303Z,101035.34
2022-10-05T21:16:19.638Z,101047.25
2022-10-05T21:18:48.832Z,101061.66
2022-10-05T21:21:17.818Z,101055.31
2022-10-05T21:23:46.189Z,101062.81
2022-10-05T21:26:14.406Z,101070.59
2022-10-05T21:28:41.995Z,101069.03
2022-10-05T21:34:51.064Z,101068.31
2022-10-05T21:37:19.970Z,101064.13
2022-10-05T21:39:47.003Z,101072.28
2022-10-05T21:42:14.014Z,101081.41
2022-10-05T21:44:41.015Z,101096.38
2022-10-05T21:47:08.102Z,101094.44
2022-10-05T21:49:36.215Z,101099.09
2022-10-05T21:52:05.332Z,101104.69
2022-10-05T21:54:33.121Z,101114.78
2022-10-05T21:57:00.521Z,101106.13
2022-10-05T21:59:31.411Z,101106.13
2022-10-05T22:01:58.736Z,101094.31
2022-10-05T22:04:25.731Z,101111.44
2022-10-05T22:06:54.170Z,101110.78
2022-10-05T22:09:21.169Z,101112.50
2022-10-05T22:11:48.890Z,101123.41
2022-10-05T22:14:16.330Z,101130.63
2022-10-05T22:16:44.963Z,101126.31
2022-10-05T22:19:18.963Z,101132.03
2022-10-05T22:21:46.306Z,101119.19
2022-10-05T22:24:13.377Z,101131.81
2022-10-05T22:26:46.025Z,101121.16
2022-10-05T22:29:15.758Z,101121.66
2022-10-05T22:31:43.446Z,101141.34
2022-10-05T22:34:10.659Z,101136.56
2022-10-05T22:36:37.798Z,101123.16
2022-10-05T22:39:04.788Z,101131.91
2022-10-05T22:41:31.796Z,101135.34
2022-10-05T22:43:59.231Z,101132.47
2022-10-05T22:46:26.336Z,101128.28
